sensor_id;sensor_type;location;lat;lon;timestamp;temperature;humidity
17387;DHT22;8811;52.398;9.728;2022-08-23T16:13:34;30.50;51.30
17387;DHT22;8811;52.398;9.728;2022-08-23T16:16:05;30.40;51.20
17387;DHT22;8811;52.398;9.728;2022-08-23T16:18:35;30.40;51.40
17387;DHT22;8811;52.398;9.728;2022-08-23T16:21:05;30.30;50.90
17387;DHT22;8811;52.398;9.728;2022-08-23T16:23:38;30.10;50.90
17387;DHT22;8811;52.398;9.728;2022-08-23T16:26:09;29.90;51.30
17387;DHT22;8811;52.398;9.728;2022-08-23T16:28:39;29.70;52.90
17387;DHT22;8811;52.398;9.728;2022-08-23T16:31:09;29.50;52.40
17387;DHT22;8811;52.398;9.728;2022-08-23T16:33:37;29.30;52.50
17387;DHT22;8811;52.398;9.728;2022-08-23T16:36:05;29.30;52.60
17387;DHT22;8811;52.398;9.728;2022-08-23T16:38:33;29.20;54.60
17387;DHT22;8811;52.398;9.728;2022-08-23T16:41:03;29.20;54.10
17387;DHT22;8811;52.398;9.728;2022-08-23T16:43:31;29.20;53.20
17387;DHT22;8811;52.398;9.728;2022-08-23T16:46:04;29.10;53.20
17387;DHT22;8811;52.398;9.728;2022-08-23T16:48:34;28.90;53.90
17387;DHT22;8811;52.398;9.728;2022-08-23T16:51:03;28.90;54.70
17387;DHT22;8811;52.398;9.728;2022-08-23T16:53:31;28.80;55.70
17387;DHT22;8811;52.398;9.728;2022-08-23T16:56:02;28.70;56.70
17387;DHT22;8811;52.398;9.728;2022-08-23T16:58:34;28.60;55.80
17387;DHT22;8811;52.398;9.728;2022-08-23T17:01:15;28.50;56.60
17387;DHT22;8811;52.398;9.728;2022-08-23T17:03:47;28.50;55.60
17387;DHT22;8811;52.398;9.728;2022-08-23T17:06:15;28.40;56.80
17387;DHT22;8811;52.398;9.728;2022-08-23T17:08:42;28.40;56.30
17387;DHT22;8811;52.398;9.728;2022-08-23T17:11:12;28.30;58.30
17387;DHT22;8811;52.398;9.728;2022-08-23T17:13:41;28.20;56.10
17387;DHT22;8811;52.398;9.728;2022-08-23T17:16:10;28.20;57.40
17387;DHT22;8811;52.398;9.728;2022-08-23T17:18:40;28.10;58.20
17387;DHT22;8811;52.398;9.728;2022-08-23T17:21:13;28.10;58.60
17387;DHT22;8811;52.398;9.728;2022-08-23T17:23:40;28.00;57.40
17387;DHT22;8811;52.398;9.728;2022-08-23T17:26:09;27.90;57.60
17387;DHT22;8811;52.398;9.728;2022-08-23T17:28:40;27.90;58.70
17387;DHT22;8811;52.398;9.728;2022-08-23T17:31:11;27.80;56.90
17387;DHT22;8811;52.398;9.728;2022-08-23T17:33:40;27.80;59.10
17387;DHT22;8811;52.398;9.728;2022-08-23T17:36:17;27.70;57.60
17387;DHT22;8811;52.398;9.728;2022-08-23T17:38:48;27.60;57.00
17387;DHT22;8811;52.398;9.728;2022-08-23T17:41:21;27.60;58.40
17387;DHT22;8811;52.398;9.728;2022-08-23T17:43:51;27.50;59.80
17387;DHT22;8811;52.398;9.728;2022-08-23T17:46:23;27.50;59.60
17387;DHT22;8811;52.398;9.728;2022-08-23T17:48:51;27.40;58.60
17387;DHT22;8811;52.398;9.728;2022-08-23T17:51:20;27.40;58.20
17387;DHT22;8811;52.398;9.728;2022-08-23T17:53:50;27.30;60.30
17387;DHT22;8811;52.398;9.728;2022-08-23T17:56:18;27.20;59.60
17387;DHT22;8811;52.398;9.728;2022-08-23T17:58:47;27.20;60.00
17387;DHT22;8811;52.398;9.728;2022-08-23T18:01:15;27.20;61.10
17387;DHT22;8811;52.398;9.728;2022-08-23T18:03:43;27.10;60.00
17387;DHT22;8811;52.398;9.728;2022-08-23T18:06:12;27.10;60.10
17387;DHT22;8811;52.398;9.728;2022-08-23T18:08:41;27.00;60.10
17387;DHT22;8811;52.398;9.728;2022-08-23T18:11:09;27.00;61.40
17387;DHT22;8811;52.398;9.728;2022-08-23T18:13:36;26.90;59.60
17387;DHT22;8811;52.398;9.728;2022-08-23T18:16:04;26.90;62.30
17387;DHT22;8811;52.398;9.728;2022-08-23T18:18:31;26.80;61.40
17387;DHT22;8811;52.398;9.728;2022-08-23T18:21:03;26.80;61.70
17387;DHT22;8811;52.398;9.728;2022-08-23T18:23:31;26.70;62.40
17387;DHT22;8811;52.398;9.728;2022-08-23T18:26:07;26.60;61.10
17387;DHT22;8811;52.398;9.728;2022-08-23T18:28:56;26.50;62.30
17387;DHT22;8811;52.398;9.728;2022-08-23T18:31:22;26.50;61.30
17387;DHT22;8811;52.398;9.728;2022-08-23T18:33:52;26.40;62.60
17387;DHT22;8811;52.398;9.728;2022-08-23T18:36:21;26.30;62.20
17387;DHT22;8811;52.398;9.728;2022-08-23T18:38:51;26.30;63.30
17387;DHT22;8811;52.398;9.728;2022-08-23T18:41:22;26.20;62.80
17387;DHT22;8811;52.398;9.728;2022-08-23T18:43:51;26.20;63.70
17387;DHT22;8811;52.398;9.728;2022-08-23T18:46:20;26.10;63.80
17387;DHT22;8811;52.398;9.728;2022-08-23T18:48:49;26.00;63.10
17387;DHT22;8811;52.398;9.728;2022-08-23T18:51:16;26.00;63.00
17387;DHT22;8811;52.398;9.728;2022-08-23T18:53:45;25.90;63.80
17387;DHT22;8811;52.398;9.728;2022-08-23T18:56:12;25.80;63.50
17387;DHT22;8811;52.398;9.728;2022-08-23T18:58:39;25.80;64.80
17387;DHT22;8811;52.398;9.728;2022-08-23T19:01:18;25.70;66.40
17387;DHT22;8811;52.398;9.728;2022-08-23T19:03:45;25.70;66.30
17387;DHT22;8811;52.398;9.728;2022-08-23T19:06:12;25.60;65.50
17387;DHT22;8811;52.398;9.728;2022-08-23T19:08:39;25.60;66.00
17387;DHT22;8811;52.398;9.728;2022-08-23T19:11:08;25.50;65.60
17387;DHT22;8811;52.398;9.728;2022-08-23T19:13:35;25.50;64.90
17387;DHT22;8811;52.398;9.728;2022-08-23T19:16:02;25.50;66.40
17387;DHT22;8811;52.398;9.728;2022-08-23T19:18:31;25.40;66.30
